sensor_id;sensor_type;location;lat;lon;timestamp;P1;durP1;ratioP1;P2;durP2;ratioP2
49758;SDS011;35654;46.080;11.118;2022-12-18T00:01:27;25.60;;;12.02;;
49758;SDS011;35654;46.080;11.118;2022-12-18T00:03:57;26.27;;;12.65;;
49758;SDS011;35654;46.080;11.118;2022-12-18T00:08:51;23.52;;;12.30;;
49758;SDS011;35654;46.080;11.118;2022-12-18T00:11:19;26.20;;;11.55;;
49758;SDS011;35654;46.080;11.118;2022-12-18T00:13:48;23.52;;;11.98;;
49758;SDS011;35654;46.080;11.118;2022-12-18T00:16:17;23.50;;;12.05;;
49758;SDS011;35654;46.080;11.118;2022-12-18T00:18:47;24.08;;;11.60;;
49758;SDS011;35654;46.080;11.118;2022-12-18T00:21:18;21.98;;;11.48;;
49758;SDS011;35654;46.080;11.118;2022-12-18T00:23:46;22.17;;;11.85;;
49758;SDS011;35654;46.080;11.118;2022-12-18T00:26:19;23.88;;;12.43;;
49758;SDS011;35654;46.080;11.118;2022-12-18T00:28:49;26.20;;;12.18;;
49758;SDS011;35654;46.080;11.118;2022-12-18T00:31:17;20.88;;;11.27;;
49758;SDS011;35654;46.080;11.118;2022-12-18T00:33:46;27.38;;;12.68;;
49758;SDS011;35654;46.080;11.118;2022-12-18T00:36:19;25.55;;;12.35;;
49758;SDS011;35654;46.080;11.118;2022-12-18T00:38:47;28.60;;;12.38;;
49758;SDS011;35654;46.080;11.118;2022-12-18T00:41:14;27.13;;;12.73;;
49758;SDS011;35654;46.080;11.118;2022-12-18T00:44:04;33.53;;;13.55;;
49758;SDS011;35654;46.080;11.118;2022-12-18T00:46:31;27.50;;;12.88;;
49758;SDS011;35654;46.080;11.118;2022-12-18T00:48:59;24.33;;;12.82;;
49758;SDS011;35654;46.080;11.118;2022-12-18T00:51:26;24.27;;;12.32;;
49758;SDS011;35654;46.080;11.118;2022-12-18T00:53:52;26.23;;;12.82;;
49758;SDS011;35654;46.080;11.118;2022-12-18T00:56:19;23.80;;;11.95;;
49758;SDS011;35654;46.080;11.118;2022-12-18T00:58:47;27.63;;;12.57;;
49758;SDS011;35654;46.080;11.118;2022-12-18T01:03:41;23.88;;;10.90;;
49758;SDS011;35654;46.080;11.118;2022-12-18T01:06:08;29.25;;;13.07;;
49758;SDS011;35654;46.080;11.118;2022-12-18T01:08:36;26.80;;;13.05;;
49758;SDS011;35654;46.080;11.118;2022-12-18T01:11:12;25.33;;;13.05;;
49758;SDS011;35654;46.080;11.118;2022-12-18T01:13:41;27.55;;;12.18;;
49758;SDS011;35654;46.080;11.118;2022-12-18T01:16:11;31.23;;;12.95;;
49758;SDS011;35654;46.080;11.118;2022-12-18T01:18:38;24.63;;;11.93;;
49758;SDS011;35654;46.080;11.118;2022-12-18T01:23:35;22.10;;;11.00;;
49758;SDS011;35654;46.080;11.118;2022-12-18T01:26:09;21.13;;;11.38;;
49758;SDS011;35654;46.080;11.118;2022-12-18T01:28:39;22.50;;;11.13;;
49758;SDS011;35654;46.080;11.118;2022-12-18T01:31:23;27.83;;;11.77;;
49758;SDS011;35654;46.080;11.118;2022-12-18T01:33:52;24.98;;;11.38;;
49758;SDS011;35654;46.080;11.118;2022-12-18T01:36:23;24.27;;;11.80;;
49758;SDS011;35654;46.080;11.118;2022-12-18T01:38:55;23.83;;;11.48;;
49758;SDS011;35654;46.080;11.118;2022-12-18T01:41:23;24.13;;;11.32;;
49758;SDS011;35654;46.080;11.118;2022-12-18T01:43:55;28.40;;;12.65;;
49758;SDS011;35654;46.080;11.118;2022-12-18T01:46:27;26.98;;;11.13;;
49758;SDS011;35654;46.080;11.118;2022-12-18T01:49:00;23.42;;;10.23;;
49758;SDS011;35654;46.080;11.118;2022-12-18T01:51:28;22.35;;;10.27;;
49758;SDS011;35654;46.080;11.118;2022-12-18T01:53:57;20.38;;;9.55;;
49758;SDS011;35654;46.080;11.118;2022-12-18T01:56:25;20.25;;;9.70;;
49758;SDS011;35654;46.080;11.118;2022-12-18T01:59:09;19.70;;;10.05;;
49758;SDS011;35654;46.080;11.118;2022-12-18T02:01:37;22.63;;;9.68;;
49758;SDS011;35654;46.080;11.118;2022-12-18T02:06:50;22.95;;;9.45;;
49758;SDS011;35654;46.080;11.118;2022-12-18T02:09:31;18.60;;;9.30;;
49758;SDS011;35654;46.080;11.118;2022-12-18T02:12:21;21.20;;;9.65;;
49758;SDS011;35654;46.080;11.118;2022-12-18T02:18:04;16.65;;;8.95;;
49758;SDS011;35654;46.080;11.118;2022-12-18T02:20:39;18.73;;;9.40;;
49758;SDS011;35654;46.080;11.118;2022-12-18T02:26:30;20.98;;;9.57;;
49758;SDS011;35654;46.080;11.118;2022-12-18T02:32:01;16.45;;;8.15;;
49758;SDS011;35654;46.080;11.118;2022-12-18T02:34:31;19.88;;;8.57;;
49758;SDS011;35654;46.080;11.118;2022-12-18T02:37:02;16.75;;;8.45;;
49758;SDS011;35654;46.080;11.118;2022-12-18T02:39:32;19.75;;;8.73;;
49758;SDS011;35654;46.080;11.118;2022-12-18T02:42:02;17.27;;;8.48;;
49758;SDS011;35654;46.080;11.118;2022-12-18T02:44:43;15.43;;;8.50;;
49758;SDS011;35654;46.080;11.118;2022-12-18T02:47:12;18.38;;;8.63;;
49758;SDS011;35654;46.080;11.118;2022-12-18T02:52:34;18.20;;;8.75;;
49758;SDS011;35654;46.080;11.118;2022-12-18T03:03:51;17.02;;;8.05;;
49758;SDS011;35654;46.080;11.118;2022-12-18T03:06:35;15.18;;;7.20;;
49758;SDS011;35654;46.080;11.118;2022-12-18T03:09:09;18.30;;;7.00;;
49758;SDS011;35654;46.080;11.118;2022-12-18T03:11:40;15.15;;;6.90;;
49758;SDS011;35654;46.080;11.118;2022-12-18T03:14:30;13.93;;;6.90;;
49758;SDS011;35654;46.080;11.118;2022-12-18T03:17:00;15.93;;;7.97;;
49758;SDS011;35654;46.080;11.118;2022-12-18T03:19:29;14.82;;;7.20;;
49758;SDS011;35654;46.080;11.118;2022-12-18T03:22:00;18.67;;;7.70;;
49758;SDS011;35654;46.080;11.118;2022-12-18T03:24:29;15.52;;;7.70;;
49758;SDS011;35654;46.080;11.118;2022-12-18T03:26:58;16.13;;;7.95;;
49758;SDS011;35654;46.080;11.118;2022-12-18T03:29:33;14.05;;;7.25;;
49758;SDS011;35654;46.080;11.118;2022-12-18T03:32:06;13.75;;;7.45;;
49758;SDS011;35654;46.080;11.118;2022-12-18T03:34:37;15.55;;;7.47;;
49758;SDS011;35654;46.080;11.118;2022-12-18T03:37:06;17.20;;;8.00;;
49758;SDS011;35654;46.080;11.118;2022-12-18T03:39:34;14.50;;;7.20;;
49758;SDS011;35654;46.080;11.118;2022-12-18T03:47:51;14.02;;;6.97;;
49758;SDS011;35654;46.080;11.118;2022-12-18T03:55:51;13.73;;;6.53;;
49758;SDS011;35654;46.080;11.118;2022-12-18T03:58:20;12.20;;;6.82;;
49758;SDS011;35654;46.080;11.118;2022-12-18T04:00:52;12.93;;;6.85;;
49758;SDS011;35654;46.080;11.118;2022-12-18T04:03:22;12.50;;;6.40;;
49758;SDS011;35654;46.080;11.118;2022-12-18T04:05:51;15.10;;;6.18;;
49758;SDS011;35654;46.080;11.118;2022-12-18T04:08:20;13.07;;;5.85;;
49758;SDS011;35654;46.080;11.118;2022-12-18T04:10:48;11.23;;;5.80;;
49758;SDS011;35654;46.080;11.118;2022-12-18T04:13:21;13.15;;;6.30;;
49758;SDS011;35654;46.080;11.118;2022-12-18T04:15:49;14.35;;;6.18;;
49758;SDS011;35654;46.080;11.118;2022-12-18T04:18:16;12.32;;;6.30;;
49758;SDS011;35654;46.080;11.118;2022-12-18T04:20:42;13.38;;;6.13;;
49758;SDS011;35654;46.080;11.118;2022-12-18T04:23:09;11.68;;;6.15;;
49758;SDS011;35654;46.080;11.118;2022-12-18T04:25:35;11.73;;;5.85;;
49758;SDS011;35654;46.080;11.118;2022-12-18T04:28:02;11.60;;;5.90;;
49758;SDS011;35654;46.080;11.118;2022-12-18T04:30:29;12.30;;;5.93;;
49758;SDS011;35654;46.080;11.118;2022-12-18T04:35:22;13.23;;;6.40;;
49758;SDS011;35654;46.080;11.118;2022-12-18T04:40:15;12.55;;;6.15;;
49758;SDS011;35654;46.080;11.118;2022-12-18T04:45:09;12.85;;;6.00;;
49758;SDS011;35654;46.080;11.118;2022-12-18T04:47:36;12.73;;;6.07;;
49758;SDS011;35654;46.080;11.118;2022-12-18T04:50:02;10.77;;;5.63;;
49758;SDS011;35654;46.080;11.118;2022-12-18T04:52:29;11.75;;;6.07;;
49758;SDS011;35654;46.080;11.118;2022-12-18T04:57:23;14.38;;;6.95;;
49758;SDS011;35654;46.080;11.118;2022-12-18T05:02:15;11.13;;;6.28;;
49758;SDS011;35654;46.080;11.118;2022-12-18T05:04:42;11.55;;;6.00;;
49758;SDS011;35654;46.080;11.118;2022-12-18T05:07:08;13.15;;;6.32;;
49758;SDS011;35654;46.080;11.118;2022-12-18T05:09:34;13.23;;;6.07;;
49758;SDS011;35654;46.080;11.118;2022-12-18T05:12:00;11.57;;;5.30;;
49758;SDS011;35654;46.080;11.118;2022-12-18T05:14:27;14.07;;;6.35;;
49758;SDS011;35654;46.080;11.118;2022-12-18T05:16:54;11.40;;;5.35;;
49758;SDS011;35654;46.080;11.118;2022-12-18T05:19:19;12.53;;;5.33;;
49758;SDS011;35654;46.080;11.118;2022-12-18T05:21:44;11.43;;;5.20;;
49758;SDS011;35654;46.080;11.118;2022-12-18T05:24:10;11.17;;;5.33;;
49758;SDS011;35654;46.080;11.118;2022-12-18T05:26:35;8.03;;;4.83;;
49758;SDS011;35654;46.080;11.118;2022-12-18T05:29:01;10.33;;;5.00;;
49758;SDS011;35654;46.080;11.118;2022-12-18T05:31:26;9.30;;;4.77;;
49758;SDS011;35654;46.080;11.118;2022-12-18T05:33:53;10.67;;;5.53;;
49758;SDS011;35654;46.080;11.118;2022-12-18T05:36:19;10.88;;;5.65;;
49758;SDS011;35654;46.080;11.118;2022-12-18T05:38:44;11.33;;;6.20;;
49758;SDS011;35654;46.080;11.118;2022-12-18T05:41:11;10.00;;;5.83;;
49758;SDS011;35654;46.080;11.118;2022-12-18T05:43:37;11.88;;;6.35;;
49758;SDS011;35654;46.080;11.118;2022-12-18T05:46:07;12.27;;;5.43;;
49758;SDS011;35654;46.080;11.118;2022-12-18T05:48:36;11.95;;;5.53;;
49758;SDS011;35654;46.080;11.118;2022-12-18T05:51:06;12.03;;;5.63;;
49758;SDS011;35654;46.080;11.118;2022-12-18T05:53:35;13.57;;;7.00;;
49758;SDS011;35654;46.080;11.118;2022-12-18T05:56:04;12.30;;;6.45;;
49758;SDS011;35654;46.080;11.118;2022-12-18T05:58:32;12.25;;;6.57;;
49758;SDS011;35654;46.080;11.118;2022-12-18T06:03:32;14.02;;;5.75;;
49758;SDS011;35654;46.080;11.118;2022-12-18T06:05:59;11.32;;;5.80;;
49758;SDS011;35654;46.080;11.118;2022-12-18T06:08:25;13.38;;;6.18;;
49758;SDS011;35654;46.080;11.118;2022-12-18T06:10:52;12.77;;;6.30;;
49758;SDS011;35654;46.080;11.118;2022-12-18T06:15:46;13.35;;;6.50;;
49758;SDS011;35654;46.080;11.118;2022-12-18T06:18:13;12.30;;;6.28;;
49758;SDS011;35654;46.080;11.118;2022-12-18T06:20:39;11.65;;;6.35;;
49758;SDS011;35654;46.080;11.118;2022-12-18T06:23:07;11.82;;;6.55;;
49758;SDS011;35654;46.080;11.118;2022-12-18T06:25:37;11.38;;;6.13;;
49758;SDS011;35654;46.080;11.118;2022-12-18T06:28:04;14.90;;;6.50;;
49758;SDS011;35654;46.080;11.118;2022-12-18T06:30:31;12.85;;;5.90;;
49758;SDS011;35654;46.080;11.118;2022-12-18T06:32:58;15.10;;;6.40;;
49758;SDS011;35654;46.080;11.118;2022-12-18T06:37:51;13.35;;;6.32;;
49758;SDS011;35654;46.080;11.118;2022-12-18T06:42:44;12.00;;;5.93;;
49758;SDS011;35654;46.080;11.118;2022-12-18T06:45:11;12.07;;;6.57;;
49758;SDS011;35654;46.080;11.118;2022-12-18T06:47:38;11.15;;;5.65;;
49758;SDS011;35654;46.080;11.118;2022-12-18T06:50:04;13.68;;;6.57;;
49758;SDS011;35654;46.080;11.118;2022-12-18T06:52:32;13.30;;;6.60;;
49758;SDS011;35654;46.080;11.118;2022-12-18T06:54:59;14.00;;;6.80;;
49758;SDS011;35654;46.080;11.118;2022-12-18T06:57:26;13.20;;;6.18;;
49758;SDS011;35654;46.080;11.118;2022-12-18T06:59:52;12.15;;;6.47;;
49758;SDS011;35654;46.080;11.118;2022-12-18T07:02:18;11.40;;;6.22;;
49758;SDS011;35654;46.080;11.118;2022-12-18T07:04:43;17.57;;;6.80;;
49758;SDS011;35654;46.080;11.118;2022-12-18T07:07:09;13.87;;;6.70;;
49758;SDS011;35654;46.080;11.118;2022-12-18T07:09:34;13.50;;;7.33;;
49758;SDS011;35654;46.080;11.118;2022-12-18T07:12:01;18.13;;;7.40;;
49758;SDS011;35654;46.080;11.118;2022-12-18T07:14:28;15.45;;;7.13;;
49758;SDS011;35654;46.080;11.118;2022-12-18T07:16:55;18.02;;;7.95;;
49758;SDS011;35654;46.080;11.118;2022-12-18T07:19:22;16.10;;;8.07;;
49758;SDS011;35654;46.080;11.118;2022-12-18T07:21:49;17.80;;;7.95;;
49758;SDS011;35654;46.080;11.118;2022-12-18T07:24:16;19.60;;;9.43;;
49758;SDS011;35654;46.080;11.118;2022-12-18T07:26:42;21.88;;;8.93;;
49758;SDS011;35654;46.080;11.118;2022-12-18T07:29:12;20.25;;;8.57;;
49758;SDS011;35654;46.080;11.118;2022-12-18T07:31:39;20.77;;;10.27;;
49758;SDS011;35654;46.080;11.118;2022-12-18T07:34:09;21.45;;;9.50;;
49758;SDS011;35654;46.080;11.118;2022-12-18T07:36:37;17.73;;;8.73;;
49758;SDS011;35654;46.080;11.118;2022-12-18T07:41:30;14.75;;;7.55;;
49758;SDS011;35654;46.080;11.118;2022-12-18T07:43:56;17.52;;;8.43;;
49758;SDS011;35654;46.080;11.118;2022-12-18T07:46:23;19.30;;;9.10;;
49758;SDS011;35654;46.080;11.118;2022-12-18T07:48:50;15.68;;;7.68;;
49758;SDS011;35654;46.080;11.118;2022-12-18T07:51:17;18.48;;;9.23;;
49758;SDS011;35654;46.080;11.118;2022-12-18T07:53:44;18.45;;;9.50;;
49758;SDS011;35654;46.080;11.118;2022-12-18T07:56:11;19.25;;;10.00;;
49758;SDS011;35654;46.080;11.118;2022-12-18T08:01:11;16.27;;;8.88;;
49758;SDS011;35654;46.080;11.118;2022-12-18T08:03:39;18.25;;;8.48;;
49758;SDS011;35654;46.080;11.118;2022-12-18T08:06:07;18.52;;;9.05;;
49758;SDS011;35654;46.080;11.118;2022-12-18T08:08:35;23.10;;;10.77;;
49758;SDS011;35654;46.080;11.118;2022-12-18T08:13:28;27.65;;;11.38;;
49758;SDS011;35654;46.080;11.118;2022-12-18T08:16:02;25.13;;;11.48;;
49758;SDS011;35654;46.080;11.118;2022-12-18T08:18:32;26.83;;;11.82;;
49758;SDS011;35654;46.080;11.118;2022-12-18T08:21:21;23.98;;;11.35;;
49758;SDS011;35654;46.080;11.118;2022-12-18T08:23:49;23.23;;;10.95;;
49758;SDS011;35654;46.080;11.118;2022-12-18T08:26:18;22.13;;;11.23;;
49758;SDS011;35654;46.080;11.118;2022-12-18T08:28:46;22.38;;;10.85;;
49758;SDS011;35654;46.080;11.118;2022-12-18T08:31:13;22.73;;;10.68;;
49758;SDS011;35654;46.080;11.118;2022-12-18T08:36:06;20.83;;;9.23;;
49758;SDS011;35654;46.080;11.118;2022-12-18T08:38:32;21.17;;;10.15;;
49758;SDS011;35654;46.080;11.118;2022-12-18T08:41:02;18.65;;;9.52;;
49758;SDS011;35654;46.080;11.118;2022-12-18T08:43:29;24.20;;;11.93;;
49758;SDS011;35654;46.080;11.118;2022-12-18T08:46:12;22.60;;;11.38;;
49758;SDS011;35654;46.080;11.118;2022-12-18T08:48:38;28.13;;;11.97;;
49758;SDS011;35654;46.080;11.118;2022-12-18T08:51:03;25.60;;;12.17;;
49758;SDS011;35654;46.080;11.118;2022-12-18T08:53:29;23.23;;;11.53;;
49758;SDS011;35654;46.080;11.118;2022-12-18T08:55:56;21.63;;;10.37;;
49758;SDS011;35654;46.080;11.118;2022-12-18T08:58:23;20.40;;;9.90;;
49758;SDS011;35654;46.080;11.118;2022-12-18T09:00:49;18.13;;;9.05;;
49758;SDS011;35654;46.080;11.118;2022-12-18T09:03:17;16.30;;;7.97;;
49758;SDS011;35654;46.080;11.118;2022-12-18T09:05:45;16.50;;;7.78;;
49758;SDS011;35654;46.080;11.118;2022-12-18T09:08:12;16.15;;;8.50;;
49758;SDS011;35654;46.080;11.118;2022-12-18T09:10:45;15.82;;;8.20;;
49758;SDS011;35654;46.080;11.118;2022-12-18T09:13:13;14.32;;;7.57;;
49758;SDS011;35654;46.080;11.118;2022-12-18T09:15:45;13.38;;;7.65;;
49758;SDS011;35654;46.080;11.118;2022-12-18T09:18:14;12.80;;;7.30;;
49758;SDS011;35654;46.080;11.118;2022-12-18T09:20:42;11.60;;;6.60;;
49758;SDS011;35654;46.080;11.118;2022-12-18T09:25:34;14.35;;;6.50;;
49758;SDS011;35654;46.080;11.118;2022-12-18T09:28:01;12.40;;;6.50;;
49758;SDS011;35654;46.080;11.118;2022-12-18T09:30:29;13.82;;;6.43;;
49758;SDS011;35654;46.080;11.118;2022-12-18T09:32:56;10.55;;;6.40;;
49758;SDS011;35654;46.080;11.118;2022-12-18T09:35:21;15.38;;;6.50;;
49758;SDS011;35654;46.080;11.118;2022-12-18T09:37:48;12.60;;;5.57;;
49758;SDS011;35654;46.080;11.118;2022-12-18T09:40:14;8.35;;;5.20;;
49758;SDS011;35654;46.080;11.118;2022-12-18T09:42:44;8.13;;;4.75;;
49758;SDS011;35654;46.080;11.118;2022-12-18T09:45:13;9.43;;;4.88;;
49758;SDS011;35654;46.080;11.118;2022-12-18T09:47:40;7.85;;;4.75;;
49758;SDS011;35654;46.080;11.118;2022-12-18T09:50:24;9.93;;;5.03;;
49758;SDS011;35654;46.080;11.118;2022-12-18T09:52:56;11.27;;;5.57;;
49758;SDS011;35654;46.080;11.118;2022-12-18T09:55:31;10.05;;;4.93;;
49758;SDS011;35654;46.080;11.118;2022-12-18T10:00:42;9.73;;;4.45;;
49758;SDS011;35654;46.080;11.118;2022-12-18T10:03:17;9.17;;;4.60;;
49758;SDS011;35654;46.080;11.118;2022-12-18T10:11:21;8.05;;;4.60;;
49758;SDS011;35654;46.080;11.118;2022-12-18T10:17:01;7.50;;;3.50;;
49758;SDS011;35654;46.080;11.118;2022-12-18T10:19:58;7.88;;;4.20;;
49758;SDS011;35654;46.080;11.118;2022-12-18T10:27:47;6.28;;;4.20;;
49758;SDS011;35654;46.080;11.118;2022-12-18T10:30:17;6.05;;;3.90;;
49758;SDS011;35654;46.080;11.118;2022-12-18T10:32:45;7.90;;;4.20;;
49758;SDS011;35654;46.080;11.118;2022-12-18T10:35:15;6.20;;;4.00;;
49758;SDS011;35654;46.080;11.118;2022-12-18T10:38:04;6.53;;;3.70;;
49758;SDS011;35654;46.080;11.118;2022-12-18T10:40:30;4.95;;;3.47;;
49758;SDS011;35654;46.080;11.118;2022-12-18T10:43:14;6.68;;;3.75;;
49758;SDS011;35654;46.080;11.118;2022-12-18T10:45:41;6.05;;;4.20;;
49758;SDS011;35654;46.080;11.118;2022-12-18T10:48:19;6.28;;;4.35;;
49758;SDS011;35654;46.080;11.118;2022-12-18T10:50:50;5.43;;;3.70;;
49758;SDS011;35654;46.080;11.118;2022-12-18T10:53:20;7.07;;;3.75;;
49758;SDS011;35654;46.080;11.118;2022-12-18T10:55:51;6.07;;;4.32;;
49758;SDS011;35654;46.080;11.118;2022-12-18T11:03:58;7.15;;;4.07;;
49758;SDS011;35654;46.080;11.118;2022-12-18T11:06:27;5.90;;;4.20;;
49758;SDS011;35654;46.080;11.118;2022-12-18T11:11:51;5.32;;;3.33;;
49758;SDS011;35654;46.080;11.118;2022-12-18T11:16:49;5.35;;;3.70;;
49758;SDS011;35654;46.080;11.118;2022-12-18T11:19:26;18.23;;;11.13;;
49758;SDS011;35654;46.080;11.118;2022-12-18T11:22:00;8.60;;;4.00;;
49758;SDS011;35654;46.080;11.118;2022-12-18T11:26:59;5.57;;;3.90;;
49758;SDS011;35654;46.080;11.118;2022-12-18T11:29:28;7.95;;;5.35;;
49758;SDS011;35654;46.080;11.118;2022-12-18T11:35:43;5.03;;;3.50;;
49758;SDS011;35654;46.080;11.118;2022-12-18T11:37:53;4.93;;;3.50;;
49758;SDS011;35654;46.080;11.118;2022-12-18T11:40:45;7.00;;;4.63;;
49758;SDS011;35654;46.080;11.118;2022-12-18T11:45:52;7.63;;;3.85;;
49758;SDS011;35654;46.080;11.118;2022-12-18T11:51:35;4.88;;;3.28;;
49758;SDS011;35654;46.080;11.118;2022-12-18T11:54:11;5.25;;;3.30;;
49758;SDS011;35654;46.080;11.118;2022-12-18T11:56:52;6.15;;;3.78;;
49758;SDS011;35654;46.080;11.118;2022-12-18T12:22:38;5.38;;;3.20;;
49758;SDS011;35654;46.080;11.118;2022-12-18T12:25:23;5.13;;;3.35;;
49758;SDS011;35654;46.080;11.118;2022-12-18T12:30:44;4.45;;;3.00;;
49758;SDS011;35654;46.080;11.118;2022-12-18T12:33:26;8.93;;;4.55;;
49758;SDS011;35654;46.080;11.118;2022-12-18T12:36:23;3.78;;;2.90;;
49758;SDS011;35654;46.080;11.118;2022-12-18T12:39:01;5.25;;;2.97;;
49758;SDS011;35654;46.080;11.118;2022-12-18T12:41:34;5.13;;;2.97;;
49758;SDS011;35654;46.080;11.118;2022-12-18T12:46:58;6.47;;;2.88;;
49758;SDS011;35654;46.080;11.118;2022-12-18T12:49:29;7.68;;;3.15;;
49758;SDS011;35654;46.080;11.118;2022-12-18T12:52:05;7.97;;;3.08;;
49758;SDS011;35654;46.080;11.118;2022-12-18T12:54:36;8.05;;;3.45;;
49758;SDS011;35654;46.080;11.118;2022-12-18T13:00:07;4.70;;;3.30;;
49758;SDS011;35654;46.080;11.118;2022-12-18T13:08:09;7.75;;;3.33;;
49758;SDS011;35654;46.080;11.118;2022-12-18T13:10:39;4.88;;;3.40;;
49758;SDS011;35654;46.080;11.118;2022-12-18T13:13:10;6.70;;;3.55;;
49758;SDS011;35654;46.080;11.118;2022-12-18T13:18:33;5.38;;;2.92;;
49758;SDS011;35654;46.080;11.118;2022-12-18T13:21:03;5.03;;;3.28;;
49758;SDS011;35654;46.080;11.118;2022-12-18T13:23:44;5.88;;;3.60;;
49758;SDS011;35654;46.080;11.118;2022-12-18T13:36:45;7.45;;;3.90;;
49758;SDS011;35654;46.080;11.118;2022-12-18T13:39:20;8.38;;;4.13;;
49758;SDS011;35654;46.080;11.118;2022-12-18T13:41:54;14.63;;;5.53;;
49758;SDS011;35654;46.080;11.118;2022-12-18T13:44:55;12.35;;;6.00;;
49758;SDS011;35654;46.080;11.118;2022-12-18T13:47:33;8.97;;;4.60;;
49758;SDS011;35654;46.080;11.118;2022-12-18T13:50:09;27.40;;;9.10;;
49758;SDS011;35654;46.080;11.118;2022-12-18T13:52:51;19.83;;;6.93;;
49758;SDS011;35654;46.080;11.118;2022-12-18T13:55:18;15.48;;;6.57;;
49758;SDS011;35654;46.080;11.118;2022-12-18T13:57:47;27.98;;;9.73;;
49758;SDS011;35654;46.080;11.118;2022-12-18T14:02:49;25.00;;;9.15;;
49758;SDS011;35654;46.080;11.118;2022-12-18T14:05:23;18.08;;;6.82;;
49758;SDS011;35654;46.080;11.118;2022-12-18T14:07:50;15.73;;;6.32;;
49758;SDS011;35654;46.080;11.118;2022-12-18T14:10:18;15.77;;;6.15;;
49758;SDS011;35654;46.080;11.118;2022-12-18T14:12:48;9.05;;;4.72;;
49758;SDS011;35654;46.080;11.118;2022-12-18T14:15:39;11.18;;;4.43;;
49758;SDS011;35654;46.080;11.118;2022-12-18T14:21:39;7.03;;;4.50;;
49758;SDS011;35654;46.080;11.118;2022-12-18T14:26:42;10.68;;;5.20;;
49758;SDS011;35654;46.080;11.118;2022-12-18T14:29:29;7.03;;;4.55;;
49758;SDS011;35654;46.080;11.118;2022-12-18T14:32:13;9.10;;;4.50;;
49758;SDS011;35654;46.080;11.118;2022-12-18T14:34:44;14.50;;;8.73;;
49758;SDS011;35654;46.080;11.118;2022-12-18T14:37:13;13.07;;;5.50;;
49758;SDS011;35654;46.080;11.118;2022-12-18T14:39:51;11.93;;;7.68;;
49758;SDS011;35654;46.080;11.118;2022-12-18T14:42:20;13.25;;;5.95;;
49758;SDS011;35654;46.080;11.118;2022-12-18T14:44:46;11.43;;;5.80;;
49758;SDS011;35654;46.080;11.118;2022-12-18T14:47:16;15.82;;;6.55;;
49758;SDS011;35654;46.080;11.118;2022-12-18T14:49:43;13.45;;;6.47;;
49758;SDS011;35654;46.080;11.118;2022-12-18T14:52:19;12.52;;;6.43;;
49758;SDS011;35654;46.080;11.118;2022-12-18T14:54:52;13.55;;;6.10;;
49758;SDS011;35654;46.080;11.118;2022-12-18T14:57:25;18.02;;;6.25;;
49758;SDS011;35654;46.080;11.118;2022-12-18T15:00:07;12.68;;;6.45;;
49758;SDS011;35654;46.080;11.118;2022-12-18T15:02:41;11.65;;;6.20;;
49758;SDS011;35654;46.080;11.118;2022-12-18T15:07:55;17.80;;;6.88;;
49758;SDS011;35654;46.080;11.118;2022-12-18T15:10:25;13.00;;;7.57;;
49758;SDS011;35654;46.080;11.118;2022-12-18T15:20:54;13.70;;;6.55;;
49758;SDS011;35654;46.080;11.118;2022-12-18T15:23:25;18.35;;;8.57;;
49758;SDS011;35654;46.080;11.118;2022-12-18T15:26:00;12.85;;;6.97;;
49758;SDS011;35654;46.080;11.118;2022-12-18T15:28:34;12.00;;;6.65;;
49758;SDS011;35654;46.080;11.118;2022-12-18T15:31:28;14.18;;;6.57;;
49758;SDS011;35654;46.080;11.118;2022-12-18T15:36:24;11.98;;;6.97;;
49758;SDS011;35654;46.080;11.118;2022-12-18T15:39:01;14.93;;;6.80;;
49758;SDS011;35654;46.080;11.118;2022-12-18T15:41:27;11.60;;;6.07;;
49758;SDS011;35654;46.080;11.118;2022-12-18T15:43:54;17.20;;;7.87;;
49758;SDS011;35654;46.080;11.118;2022-12-18T15:46:20;15.15;;;6.85;;
49758;SDS011;35654;46.080;11.118;2022-12-18T15:48:48;15.02;;;7.63;;
49758;SDS011;35654;46.080;11.118;2022-12-18T15:53:49;16.48;;;7.18;;
49758;SDS011;35654;46.080;11.118;2022-12-18T15:56:20;18.23;;;7.72;;
49758;SDS011;35654;46.080;11.118;2022-12-18T15:59:07;14.77;;;7.10;;
49758;SDS011;35654;46.080;11.118;2022-12-18T16:01:35;13.40;;;7.03;;
49758;SDS011;35654;46.080;11.118;2022-12-18T16:04:01;16.17;;;7.73;;
49758;SDS011;35654;46.080;11.118;2022-12-18T16:06:26;25.93;;;12.73;;
49758;SDS011;35654;46.080;11.118;2022-12-18T16:08:53;16.97;;;8.37;;
49758;SDS011;35654;46.080;11.118;2022-12-18T16:16:30;18.43;;;8.63;;
49758;SDS011;35654;46.080;11.118;2022-12-18T16:18:55;16.93;;;9.20;;
49758;SDS011;35654;46.080;11.118;2022-12-18T16:21:21;19.57;;;9.20;;
49758;SDS011;35654;46.080;11.118;2022-12-18T16:23:46;24.27;;;10.87;;
49758;SDS011;35654;46.080;11.118;2022-12-18T16:26:12;21.90;;;10.70;;
49758;SDS011;35654;46.080;11.118;2022-12-18T16:28:38;22.13;;;9.70;;
49758;SDS011;35654;46.080;11.118;2022-12-18T16:31:05;20.60;;;10.07;;
49758;SDS011;35654;46.080;11.118;2022-12-18T16:33:31;24.42;;;10.98;;
49758;SDS011;35654;46.080;11.118;2022-12-18T16:35:58;21.25;;;10.05;;
49758;SDS011;35654;46.080;11.118;2022-12-18T16:38:24;25.95;;;10.50;;
49758;SDS011;35654;46.080;11.118;2022-12-18T16:40:50;26.10;;;10.82;;
49758;SDS011;35654;46.080;11.118;2022-12-18T16:43:34;22.67;;;10.57;;
49758;SDS011;35654;46.080;11.118;2022-12-18T16:46:00;27.50;;;11.10;;
49758;SDS011;35654;46.080;11.118;2022-12-18T16:48:25;21.33;;;11.17;;
49758;SDS011;35654;46.080;11.118;2022-12-18T16:50:53;24.07;;;11.67;;
49758;SDS011;35654;46.080;11.118;2022-12-18T16:53:27;22.40;;;11.88;;
49758;SDS011;35654;46.080;11.118;2022-12-18T16:58:23;26.52;;;11.65;;
49758;SDS011;35654;46.080;11.118;2022-12-18T17:00:49;26.17;;;11.35;;
49758;SDS011;35654;46.080;11.118;2022-12-18T17:03:14;26.27;;;12.17;;
49758;SDS011;35654;46.080;11.118;2022-12-18T17:05:39;26.77;;;12.73;;
49758;SDS011;35654;46.080;11.118;2022-12-18T17:08:05;28.87;;;11.80;;
49758;SDS011;35654;46.080;11.118;2022-12-18T17:10:30;25.77;;;12.57;;
49758;SDS011;35654;46.080;11.118;2022-12-18T17:12:56;29.73;;;12.40;;
49758;SDS011;35654;46.080;11.118;2022-12-18T17:15:21;24.97;;;12.33;;
49758;SDS011;35654;46.080;11.118;2022-12-18T17:17:47;63.03;;;25.07;;
49758;SDS011;35654;46.080;11.118;2022-12-18T17:20:12;57.47;;;24.53;;
49758;SDS011;35654;46.080;11.118;2022-12-18T17:22:39;48.63;;;19.80;;
49758;SDS011;35654;46.080;11.118;2022-12-18T17:25:05;46.22;;;17.75;;
49758;SDS011;35654;46.080;11.118;2022-12-18T17:27:31;42.97;;;18.73;;
49758;SDS011;35654;46.080;11.118;2022-12-18T17:29:56;34.30;;;15.53;;
49758;SDS011;35654;46.080;11.118;2022-12-18T17:32:22;34.03;;;14.87;;
49758;SDS011;35654;46.080;11.118;2022-12-18T17:34:47;32.20;;;14.43;;
49758;SDS011;35654;46.080;11.118;2022-12-18T17:37:13;31.00;;;14.90;;
49758;SDS011;35654;46.080;11.118;2022-12-18T17:42:06;32.75;;;14.30;;
49758;SDS011;35654;46.080;11.118;2022-12-18T17:44:32;36.10;;;16.00;;
49758;SDS011;35654;46.080;11.118;2022-12-18T17:46:58;35.63;;;15.87;;
49758;SDS011;35654;46.080;11.118;2022-12-18T17:49:23;37.90;;;16.77;;
49758;SDS011;35654;46.080;11.118;2022-12-18T17:51:50;33.30;;;17.00;;
49758;SDS011;35654;46.080;11.118;2022-12-18T17:54:16;36.42;;;16.80;;
49758;SDS011;35654;46.080;11.118;2022-12-18T17:56:43;34.30;;;16.67;;
49758;SDS011;35654;46.080;11.118;2022-12-18T17:59:09;37.97;;;17.45;;